Airfield :
LOGIN :

Register | Disclaimer

   EN    FR    IT 

 










Legend :    VFR   Marginal VFR   IFR   Intensive IFR   Very Intensive IFR
Visi :
Ceiling :
>= 8 km
>= 3000ft
5 to 8 km
1000 to 3000 ft
1500m to 5 km
500 to 1000 ft
800 to 1500m
200 to 500 ft
< 800m
< 200 ft
Symbols :   Thunderstorms  Fog  Heavy snow  Heavy precipitations  Wind > 20 kt
SIGMETs :     Misc.  Thunderstorms  Icing  Turbulence  Mountain Waves  Volcanic Ashes







- Airport Elevation : 50 ft
- IATA code : KOI
- Download approach charts


EGPA - Kirkwall

CURRENT METAR :
  • 190420Z AUTO 31015KT 9999 FEW047/// 06/02 Q1018

EXPIRED METARs :
  • 190350Z AUTO 31016KT 9999 NCD 06/02 Q1017
  • 190320Z AUTO 30018G28KT 9999 FEW033/// 05/02 Q1017
  • 190250Z AUTO 30017KT 9999 SCT046/// 05/02 Q1017
  • 190220Z AUTO 31017KT 9999 FEW029/// 06/03 Q1017
  • 190150Z AUTO 31016KT 9999 FEW033/// 05/02 Q1017

TAF AMD TAF EGPA
Valid from the 19 at 03:00 until the 19 at 12:00 UTC


190334Z 1903/1912 31015KT 9999 FEW030
PROB30
TEMPO 1903/1906 30018G28KT 8000 -SHRA
BECMG 1906/1909 31005KT
No reported NOTAMs for that airfield.
1 SIGMET reported for the Scottish FIR (EGPX) :
 
Severe turbulence
EGPX SIGMET 01 VALID 190330/190730 EGRR
EGPX SCOTTISH FIR SEV TURB FCST WI N5939 E00034 - N5700 E00500 - N5512 E00500 - N5724 E00028 - N5939 E00034 SFC/FL060 MOV SSE 10KT NC=



MET'MAP, your aeronautical weather chart ! - Copyright ORBIFLY December 2007 - Disclaimer

ORBIFLY MET'MAP TEAM :

Programming & Development : Alexandra Zaïnal
Concept & Development : Baudouin d'Aumeries
Co-Development & Prog : Marc-Olivier Méhu
Technical & hardware support : Manuel Goepfert

Contact : metmap@orbifly.com




SOURCES & CREDITS :

   NOAA